Time;durP1;ratioP1;P1;durP2;ratioP2;P2;SDS_P1;SDS_P2;PMS_P1;PMS_P2;Temp;Humidity;BMP_temperature;BMP_pressure;BME280_temperature;BME280_humidity;BME280_pressure;Samples;Min_cycle;Max_cycle;Signal;HPM_P1;HPM_P2
2023/11/14 00:00:04;;;;;;;4.00;2.00;;;;;;;5.69;100.00;100592.22;105064;1260;72922;-52
2023/11/14 00:02:31;;;;;;;5.90;2.00;;;;;;;5.68;100.00;100592.05;105474;1257;60486;-53
2023/11/14 00:04:59;;;;;;;3.00;1.70;;;;;;;5.66;100.00;100588.88;105182;1255;60802;-52
2023/11/14 00:07:27;;;;;;;1.90;1.30;;;;;;;5.64;100.00;100590.14;105497;1257;75462;-53
2023/11/14 00:09:54;;;;;;;1.90;1.70;;;;;;;5.62;100.00;100590.70;105255;1260;64773;-51
2023/11/14 00:12:22;;;;;;;4.20;1.30;;;;;;;5.60;100.00;100585.59;105248;1260;72777;-50
2023/11/14 00:14:49;;;;;;;2.00;1.70;;;;;;;5.58;100.00;100579.55;105035;1260;61062;-51
2023/11/14 00:17:17;;;;;;;2.40;1.50;;;;;;;5.58;100.00;100573.15;105301;1258;60408;-52
2023/11/14 00:19:44;;;;;;;2.60;1.00;;;;;;;5.58;100.00;100576.52;108710;1255;73831;-52
2023/11/14 00:22:12;;;;;;;2.80;1.30;;;;;;;5.59;100.00;100569.04;108782;1254;67343;-54
2023/11/14 00:24:40;;;;;;;3.50;1.40;;;;;;;5.61;100.00;100565.10;108793;1254;73083;-52
2023/11/14 00:27:07;;;;;;;3.20;1.30;;;;;;;5.63;100.00;100573.41;106218;1256;3365919;-53
2023/11/14 00:30:49;;;;;;;2.90;1.50;;;;;;;5.65;100.00;100649.95;102173;1295;602366;-56
2023/11/14 00:33:17;;;;;;;1.70;1.20;;;;;;;5.67;100.00;100701.05;104390;1267;59271;-52
2023/11/14 00:35:44;;;;;;;2.30;1.40;;;;;;;5.68;100.00;100674.67;104271;1266;60409;-51
2023/11/14 00:38:12;;;;;;;1.60;1.50;;;;;;;5.67;100.00;100669.52;104451;1267;71055;-57
2023/11/14 00:40:40;;;;;;;2.20;1.30;;;;;;;5.67;100.00;100656.35;104419;1271;65363;-54
2023/11/14 00:43:07;;;;;;;3.20;2.10;;;;;;;5.64;100.00;100646.05;108248;1266;72714;-52
2023/11/14 00:45:35;;;;;;;2.50;1.80;;;;;;;5.61;100.00;100633.27;105769;1263;3380880;-57
2023/11/14 00:48:03;;;;;;;2.60;1.80;;;;;;;5.57;100.00;100621.06;108469;1263;58380;-57
2023/11/14 00:50:30;;;;;;;3.20;2.30;;;;;;;5.52;100.00;100614.73;108342;1263;57360;-53
2023/11/14 00:52:57;;;;;;;3.90;2.00;;;;;;;5.47;100.00;100607.30;108394;1264;65756;-57
2023/11/14 00:55:25;;;;;;;3.30;2.00;;;;;;;5.42;100.00;100597.77;108398;1263;74643;-54
2023/11/14 00:57:52;;;;;;;3.10;2.20;;;;;;;5.37;100.00;100588.94;108368;1264;59783;-53
2023/11/14 01:00:21;;;;;;;4.10;1.90;;;;;;;5.32;100.00;100582.24;108358;1263;60096;-57
2023/11/14 01:02:53;;;;;;;2.70;2.40;;;;;;;5.29;100.00;100571.95;108427;1264;74833;-54
2023/11/14 01:05:23;;;;;;;3.80;2.00;;;;;;;5.27;100.00;100569.49;106311;1267;67417;-55
2023/11/14 01:07:50;;;;;;;4.20;2.30;;;;;;;5.24;100.00;100560.47;104695;1267;72687;-50
2023/11/14 01:10:19;;;;;;;1.90;1.70;;;;;;;5.21;100.00;100547.68;105304;1267;59784;-57
2023/11/14 01:12:47;;;;;;;3.40;2.00;;;;;;;5.19;100.00;100537.05;104760;1264;60131;-57
2023/11/14 01:15:16;;;;;;;5.40;2.30;;;;;;;5.15;100.00;100528.02;105366;1266;71823;-54
2023/11/14 01:17:43;;;;;;;2.40;2.20;;;;;;;5.10;100.00;100518.13;104472;1269;66171;-53
2023/11/14 01:20:11;;;;;;;1.80;1.60;;;;;;;5.05;100.00;100507.00;104496;1271;71765;-51
2023/11/14 01:22:39;;;;;;;1.80;1.60;;;;;;;5.01;100.00;100504.57;104490;1266;61055;-56
2023/11/14 01:25:07;;;;;;;2.60;1.90;;;;;;;4.98;100.00;100500.70;105713;1267;60047;-51
2023/11/14 01:27:36;;;;;;;3.10;2.00;;;;;;;4.93;100.00;100495.44;104704;1264;71671;-53
2023/11/14 01:30:05;;;;;;;4.50;1.60;;;;;;;4.89;100.00;100488.36;104519;1267;65757;-53
2023/11/14 01:32:32;;;;;;;5.40;2.00;;;;;;;4.84;100.00;100477.05;105196;1264;72680;-57
2023/11/14 01:35:00;;;;;;;3.70;1.50;;;;;;;4.82;100.00;100474.06;104522;1266;62766;-50
2023/11/14 01:37:27;;;;;;;2.10;1.50;;;;;;;4.79;100.00;100465.02;104482;1272;59785;-52
2023/11/14 01:39:55;;;;;;;2.80;2.00;;;;;;;4.76;100.00;100457.79;104598;1266;73545;-55
2023/11/14 01:42:22;;;;;;;2.30;2.10;;;;;;;4.72;100.00;100454.45;104601;1269;67131;-54
2023/11/14 01:44:50;;;;;;;4.80;2.50;;;;;;;4.68;100.00;100449.17;104564;1267;72252;-54
2023/11/14 01:47:18;;;;;;;2.60;2.10;;;;;;;4.64;100.00;100443.55;104682;1267;59641;-52
2023/11/14 01:49:46;;;;;;;2.00;1.80;;;;;;;4.58;100.00;100432.26;104668;1269;59728;-57
2023/11/14 01:52:14;;;;;;;4.60;2.70;;;;;;;4.51;100.00;100425.94;104664;1264;73519;-56
2023/11/14 01:54:41;;;;;;;3.60;3.00;;;;;;;4.45;100.00;100421.39;104645;1269;66419;-51
2023/11/14 01:57:12;;;;;;;2.90;2.40;;;;;;;4.40;100.00;100414.36;104560;1267;71540;-54
2023/11/14 01:59:41;;;;;;;3.70;2.60;;;;;;;4.34;100.00;100404.29;104284;1270;59749;-52
2023/11/14 02:02:12;;;;;;;2.90;2.10;;;;;;;4.29;100.00;100394.41;104694;1267;60092;-53
2023/11/14 02:04:40;;;;;;;2.20;2.00;;;;;;;4.25;100.00;100380.43;105155;1269;72897;-56
2023/11/14 02:07:07;;;;;;;3.70;2.40;;;;;;;4.21;100.00;100372.66;104526;1267;66978;-52
2023/11/14 02:09:35;;;;;;;3.10;2.20;;;;;;;4.17;100.00;100369.50;105160;1266;72736;-55
2023/11/14 02:12:03;;;;;;;4.10;2.20;;;;;;;4.15;100.00;100369.36;104400;1271;60825;-51
2023/11/14 02:14:31;;;;;;;2.80;1.90;;;;;;;4.12;100.00;100366.02;104481;1270;60291;-54
2023/11/14 02:16:59;;;;;;;4.80;2.40;;;;;;;4.09;100.00;100361.95;104546;1272;73046;-56
2023/11/14 02:19:27;;;;;;;4.80;2.50;;;;;;;4.06;100.00;100360.42;104585;1269;66812;-51
2023/11/14 02:21:55;;;;;;;3.30;2.70;;;;;;;4.04;100.00;100358.31;104470;1263;73645;-54
2023/11/14 02:24:22;;;;;;;2.30;2.00;;;;;;;4.02;100.00;100353.17;104480;1266;59688;-52
2023/11/14 02:26:50;;;;;;;3.90;2.40;;;;;;;3.98;100.00;100351.81;104400;1264;60131;-58
2023/11/14 02:29:22;;;;;;;3.80;2.60;;;;;;;3.95;100.00;100350.08;104626;1267;71831;-52
2023/11/14 02:31:49;;;;;;;4.90;3.00;;;;;;;3.92;100.00;100350.80;104916;1267;68064;-53
2023/11/14 02:34:17;;;;;;;7.30;3.20;;;;;;;3.90;100.00;100338.96;104400;1269;71491;-52
2023/11/14 02:36:45;;;;;;;4.30;2.60;;;;;;;3.87;100.00;100334.90;105019;1263;59829;-53
2023/11/14 02:39:13;;;;;;;4.70;3.30;;;;;;;3.85;100.00;100331.73;105058;1257;60067;-56
2023/11/14 02:41:41;;;;;;;5.20;3.30;;;;;;;3.83;100.00;100320.76;105358;1263;71712;-52
2023/11/14 02:44:09;;;;;;;3.50;2.60;;;;;;;3.80;100.00;100318.65;105869;1257;65954;-54
2023/11/14 02:46:39;;;;;;;4.40;2.80;;;;;;;3.78;100.00;100314.23;105348;1263;73210;-55
2023/11/14 02:49:36;;;;;;;3.10;2.50;;;;;;;3.75;100.00;100301.30;105480;1260;59898;-56
2023/11/14 02:52:04;;;;;;;3.90;2.10;;;;;;;3.73;100.00;100303.30;105390;1262;60014;-52
2023/11/14 02:54:32;;;;;;;3.00;1.90;;;;;;;3.72;100.00;100288.94;105347;1260;73176;-56
2023/11/14 02:56:59;;;;;;;2.60;2.40;;;;;;;3.72;100.00;100286.80;105047;1263;65762;-56
2023/11/14 02:59:27;;;;;;;3.50;2.40;;;;;;;3.73;100.00;100281.83;105422;1260;71764;-52
2023/11/14 03:01:54;;;;;;;6.30;2.30;;;;;;;3.72;100.00;100277.92;105395;1260;59676;-51
2023/11/14 03:04:21;;;;;;;4.90;2.90;;;;;;;3.72;100.00;100282.72;105427;1257;62387;-52
2023/11/14 03:06:49;;;;;;;4.10;2.80;;;;;;;3.70;100.00;100280.96;105470;1254;72005;-53
2023/11/14 03:09:17;;;;;;;3.10;2.90;;;;;;;3.66;100.00;100279.58;105425;1254;65697;-51
2023/11/14 03:11:44;;;;;;;6.00;3.20;;;;;;;3.61;100.00;100275.92;105354;1254;71276;-52
2023/11/14 03:14:12;;;;;;;3.50;3.10;;;;;;;3.56;100.00;100271.90;105231;1254;59752;-57
2023/11/14 03:16:39;;;;;;;3.40;3.10;;;;;;;3.50;100.00;100269.83;105290;1254;59726;-57
2023/11/14 03:19:08;;;;;;;4.10;2.80;;;;;;;3.45;100.00;100269.02;108924;1254;71989;-54
2023/11/14 03:21:41;;;;;;;7.20;3.10;;;;;;;3.39;100.00;100267.84;109096;1253;65752;-54
2023/11/14 03:24:11;;;;;;;3.20;2.60;;;;;;;3.33;100.00;100271.80;108961;1254;73218;-52
2023/11/14 03:26:39;;;;;;;4.00;2.60;;;;;;;3.26;100.00;100259.10;108994;1254;61012;-54
2023/11/14 03:29:10;;;;;;;7.30;2.50;;;;;;;3.22;100.00;100249.76;109185;1253;60089;-55
2023/11/14 03:31:38;;;;;;;2.80;2.50;;;;;;;3.18;100.00;100243.77;108978;1254;71829;-54
2023/11/14 03:34:06;;;;;;;1.80;1.70;;;;;;;3.15;100.00;100236.52;109074;1256;67449;-56
2023/11/14 03:36:34;;;;;;;3.10;2.30;;;;;;;3.14;100.00;100240.63;108979;1254;71482;-54
2023/11/14 03:39:03;;;;;;;2.30;1.80;;;;;;;3.15;100.00;100243.98;108914;1254;59326;-58
2023/11/14 03:41:31;;;;;;;3.40;2.20;;;;;;;3.16;100.00;100237.39;109044;1256;58863;-54
2023/11/14 03:43:58;;;;;;;6.00;2.90;;;;;;;3.16;100.00;100231.71;109145;1254;73036;-54
2023/11/14 03:46:26;;;;;;;2.10;1.90;;;;;;;3.15;100.00;100215.95;108952;1254;65966;-56
2023/11/14 03:48:53;;;;;;;2.90;2.40;;;;;;;3.13;100.00;100205.88;106478;1257;71471;-53
2023/11/14 03:51:20;;;;;;;6.90;2.70;;;;;;;3.08;100.00;100194.56;105365;1255;59657;-51
2023/11/14 03:53:49;;;;;;;4.80;3.60;;;;;;;3.04;100.00;100175.30;105317;1257;59869;-53
2023/11/14 03:56:17;;;;;;;4.80;4.00;;;;;;;3.01;100.00;100165.57;105236;1254;71841;-52
2023/11/14 03:58:44;;;;;;;3.70;3.30;;;;;;;2.96;100.00;100160.33;109122;1254;67538;-54
2023/11/14 04:01:12;;;;;;;6.40;3.00;;;;;;;2.91;100.00;100153.80;109025;1254;72262;-53
2023/11/14 04:03:39;;;;;;;6.30;3.20;;;;;;;2.86;100.00;100146.60;106561;1257;59815;-53
2023/11/14 04:06:11;;;;;;;2.70;2.10;;;;;;;2.82;100.00;100144.50;105688;1259;59662;-53
2023/11/14 04:08:38;;;;;;;5.90;3.40;;;;;;;2.78;100.00;100143.14;105410;1259;73592;-54
2023/11/14 04:11:08;;;;;;;4.10;2.40;;;;;;;2.76;100.00;100139.80;105291;1254;66737;-57
2023/11/14 04:13:36;;;;;;;3.50;2.70;;;;;;;2.72;100.00;100135.41;105164;1255;71453;-53
2023/11/14 04:16:05;;;;;;;2.90;2.30;;;;;;;2.69;100.00;100126.23;105479;1254;60001;-53
2023/11/14 04:18:38;;;;;;;4.60;2.70;;;;;;;2.66;100.00;100120.40;105796;1254;60356;-56
2023/11/14 04:21:06;;;;;;;3.70;2.50;;;;;;;2.65;100.00;100119.17;105495;1254;71871;-55
2023/11/14 04:23:34;;;;;;;3.00;1.70;;;;;;;2.66;100.00;100122.34;105367;1254;65839;-53
2023/11/14 04:26:02;;;;;;;6.80;2.70;;;;;;;2.69;100.00;100114.89;105291;1258;71338;-51
2023/11/14 04:28:31;;;;;;;2.80;2.50;;;;;;;2.71;100.00;100107.25;106266;1254;60267;-52
2023/11/14 04:30:59;;;;;;;3.60;2.90;;;;;;;2.74;100.00;100100.11;105371;1259;60110;-54
2023/11/14 04:33:26;;;;;;;3.30;2.70;;;;;;;2.76;100.00;100097.27;105112;1260;72359;-55
2023/11/14 04:35:54;;;;;;;6.30;3.10;;;;;;;2.78;100.00;100096.01;105316;1258;65868;-52
2023/11/14 04:38:22;;;;;;;6.90;3.50;;;;;;;2.78;100.00;100092.27;105252;1260;71200;-51
2023/11/14 04:40:49;;;;;;;5.60;3.00;;;;;;;2.76;100.00;100091.59;105247;1260;61305;-56
2023/11/14 04:43:17;;;;;;;8.50;3.30;;;;;;;2.72;100.00;100082.79;105284;1257;60376;-54
2023/11/14 04:45:44;;;;;;;4.40;3.40;;;;;;;2.70;100.00;100088.65;105989;1254;72585;-52
2023/11/14 04:48:13;;;;;;;3.80;3.30;;;;;;;2.69;100.00;100090.43;105633;1255;65706;-51
2023/11/14 04:50:40;;;;;;;4.20;3.00;;;;;;;2.69;100.00;100092.55;105269;1260;73129;-52
2023/11/14 04:53:08;;;;;;;4.20;3.30;;;;;;;2.69;100.00;100092.73;105262;1254;60933;-52
2023/11/14 04:55:36;;;;;;;7.20;3.10;;;;;;;2.70;100.00;100093.27;105429;1257;60970;-54
2023/11/14 04:58:04;;;;;;;5.40;2.90;;;;;;;2.70;100.00;100094.49;106013;1259;72634;-54
2023/11/14 05:00:31;;;;;;;7.20;3.90;;;;;;;2.72;100.00;100090.23;105409;1254;66143;-52
2023/11/14 05:03:04;;;;;;;4.50;3.40;;;;;;;2.74;100.00;100087.00;105550;1259;71429;-51
2023/11/14 05:05:32;;;;;;;5.40;3.60;;;;;;;2.75;100.00;100086.81;105499;1260;60828;-54
2023/11/14 05:08:00;;;;;;;4.60;4.00;;;;;;;2.75;100.00;100079.02;105019;1258;60498;-52
2023/11/14 05:10:28;;;;;;;5.30;4.30;;;;;;;2.76;100.00;100077.95;105569;1252;75657;-53
2023/11/14 05:12:56;;;;;;;9.00;4.10;;;;;;;2.76;100.00;100076.70;105487;1259;69406;-52
2023/11/14 05:15:24;;;;;;;6.10;4.20;;;;;;;2.77;100.00;100076.87;107582;1254;72680;-50
2023/11/14 05:17:51;;;;;;;5.60;4.30;;;;;;;2.78;100.00;100075.63;105490;1259;60513;-53
2023/11/14 05:20:19;;;;;;;4.50;3.70;;;;;;;2.78;100.00;100070.48;105360;1253;60526;-52
2023/11/14 05:22:46;;;;;;;3.70;3.00;;;;;;;2.78;100.00;100064.09;105398;1255;74778;-54
2023/11/14 05:25:14;;;;;;;5.90;3.40;;;;;;;2.79;100.00;100052.57;105528;1257;65773;-53
2023/11/14 05:27:41;;;;;;;4.70;2.70;;;;;;;2.80;100.00;100053.63;105518;1260;73183;-52
2023/11/14 05:30:11;;;;;;;3.40;3.10;;;;;;;2.82;100.00;100055.16;105561;1260;60990;-53
2023/11/14 05:32:39;;;;;;;4.00;3.20;;;;;;;2.85;100.00;100052.48;106463;1254;59456;-53
2023/11/14 05:35:08;;;;;;;5.50;4.30;;;;;;;2.87;100.00;100054.59;107073;1253;74001;-52
2023/11/14 05:37:36;;;;;;;7.80;6.40;;;;;;;2.90;100.00;100060.58;105720;1258;67012;-54
2023/11/14 05:40:04;;;;;;;8.00;7.10;;;;;;;2.93;100.00;100058.77;105824;1253;71458;-52
2023/11/14 05:42:31;;;;;;;8.90;6.90;;;;;;;2.97;100.00;100057.65;105918;1255;60530;-53
2023/11/14 05:44:59;;;;;;;10.20;8.00;;;;;;;3.01;100.00;100055.29;105309;1260;61104;-54
2023/11/14 05:47:26;;;;;;;13.20;8.50;;;;;;;3.05;100.00;100053.66;105411;1257;72835;-53
2023/11/14 05:49:54;;;;;;;11.50;7.60;;;;;;;3.09;100.00;100047.92;105348;1260;67502;-52
2023/11/14 05:52:21;;;;;;;7.10;6.30;;;;;;;3.12;100.00;100050.02;105342;1260;72782;-55
2023/11/14 05:54:48;;;;;;;8.40;5.00;;;;;;;3.15;100.00;100052.63;105355;1255;60619;-52
2023/11/14 05:57:16;;;;;;;10.70;5.10;;;;;;;3.20;100.00;100050.09;105437;1260;60476;-55
2023/11/14 05:59:45;;;;;;;7.30;4.20;;;;;;;3.24;100.00;100056.21;108221;1258;73801;-53
2023/11/14 06:02:14;;;;;;;5.10;3.70;;;;;;;3.30;100.00;100052.44;105411;1254;66477;-55
2023/11/14 06:04:42;;;;;;;5.30;4.30;;;;;;;3.35;100.00;100055.02;109000;1254;72747;-54
2023/11/14 06:07:09;;;;;;;6.80;3.40;;;;;;;3.40;100.00;100049.95;109013;1257;59595;-54
2023/11/14 06:09:37;;;;;;;9.30;5.50;;;;;;;3.46;100.00;100040.13;109094;1253;60073;-52
2023/11/14 06:12:05;;;;;;;11.80;6.40;;;;;;;3.52;100.00;100043.94;108983;1254;73892;-55
2023/11/14 06:14:33;;;;;;;11.80;5.80;;;;;;;3.57;100.00;100054.35;108943;1254;66747;-54
2023/11/14 06:17:00;;;;;;;10.20;5.70;;;;;;;3.61;100.00;100055.15;109038;1256;70802;-56
2023/11/14 06:19:28;;;;;;;12.00;4.30;;;;;;;3.64;100.00;100049.07;109045;1254;59316;-55
2023/11/14 06:21:57;;;;;;;12.90;6.10;;;;;;;3.69;100.00;100050.59;109040;1258;59072;-55
2023/11/14 06:24:24;;;;;;;8.80;4.90;;;;;;;3.72;100.00;100053.73;108910;1254;74297;-57
2023/11/14 06:26:51;;;;;;;11.10;6.60;;;;;;;3.76;100.00;100054.02;108964;1254;65585;-55
2023/11/14 06:29:19;;;;;;;12.80;7.10;;;;;;;3.81;100.00;100052.54;109014;1254;71367;-55
2023/11/14 06:31:46;;;;;;;11.10;5.80;;;;;;;3.86;100.00;100051.21;109069;1257;59768;-55
2023/11/14 06:34:17;;;;;;;12.60;5.10;;;;;;;3.89;100.00;100051.86;109034;1254;60116;-54
2023/11/14 06:36:45;;;;;;;9.20;6.20;;;;;;;3.93;100.00;100048.60;108947;1254;73216;-53
2023/11/14 06:39:12;;;;;;;14.10;5.60;;;;;;;3.97;100.00;100043.93;108981;1260;65491;-55
2023/11/14 06:41:40;;;;;;;9.00;5.70;;;;;;;4.00;100.00;100042.63;109112;1254;71414;-55
2023/11/14 06:44:07;;;;;;;8.60;4.30;;;;;;;4.02;100.00;100036.19;105667;1254;60618;-55
2023/11/14 06:46:35;;;;;;;5.50;4.20;;;;;;;4.04;100.00;100034.02;105384;1253;60319;-56
2023/11/14 06:49:02;;;;;;;8.50;4.10;;;;;;;4.06;100.00;100033.11;109155;1258;74336;-54
2023/11/14 06:51:30;;;;;;;8.50;4.00;;;;;;;4.07;100.00;100032.21;108962;1260;67217;-56
2023/11/14 06:53:57;;;;;;;9.50;5.50;;;;;;;4.08;100.00;100029.35;108227;1256;72690;-57
2023/11/14 06:56:25;;;;;;;8.40;4.10;;;;;;;4.10;100.00;100029.12;105219;1258;61697;-53
2023/11/14 06:58:52;;;;;;;8.50;4.30;;;;;;;4.12;100.00;100028.73;105025;1259;61436;-53
2023/11/14 07:01:20;;;;;;;3.30;2.30;;;;;;;4.15;100.00;100031.17;105338;1257;72982;-53
2023/11/14 07:03:49;;;;;;;3.60;2.50;;;;;;;4.16;100.00;100029.73;105710;1255;65983;-54
2023/11/14 07:06:19;;;;;;;3.80;2.00;;;;;;;4.18;100.00;100035.73;105622;1261;72765;-56
2023/11/14 07:08:46;;;;;;;3.90;2.30;;;;;;;4.19;100.00;100031.81;105437;1254;60535;-52
2023/11/14 07:11:14;;;;;;;6.20;3.40;;;;;;;4.20;100.00;100028.05;105285;1264;60469;-56
2023/11/14 07:13:43;;;;;;;5.70;3.20;;;;;;;4.21;100.00;100031.77;105246;1255;72845;-57
2023/11/14 07:16:11;;;;;;;4.50;3.00;;;;;;;4.22;100.00;100036.56;108157;1254;66692;-53
2023/11/14 07:18:39;;;;;;;5.90;3.00;;;;;;;4.23;100.00;100039.91;105383;1258;71471;-56
2023/11/14 07:21:07;;;;;;;7.70;2.90;;;;;;;4.24;100.00;100033.86;107447;1256;60488;-52
2023/11/14 07:23:35;;;;;;;2.20;1.60;;;;;;;4.28;100.00;100027.02;105273;1258;60643;-51
2023/11/14 07:26:03;;;;;;;2.80;1.50;;;;;;;4.32;100.00;100018.26;105343;1258;72177;-51
2023/11/14 07:28:33;;;;;;;3.70;1.70;;;;;;;4.36;100.00;100017.80;105518;1260;66738;-52
2023/11/14 07:31:00;;;;;;;3.60;1.40;;;;;;;4.41;100.00;100021.81;104955;1254;72714;-54
2023/11/14 07:33:28;;;;;;;2.80;1.80;;;;;;;4.46;100.00;100019.04;104915;1255;60549;-54
2023/11/14 07:35:56;;;;;;;4.20;2.20;;;;;;;4.49;100.00;100015.45;104786;1258;60568;-53
2023/11/14 07:38:23;;;;;;;7.10;2.90;;;;;;;4.51;100.00;100006.48;104642;1260;72637;-56
2023/11/14 07:40:52;;;;;;;4.20;2.70;;;;;;;4.53;100.00;99995.61;105425;1257;65632;-53
2023/11/14 07:43:24;;;;;;;8.90;2.80;;;;;;;4.56;100.00;99985.61;104926;1260;72608;-52
2023/11/14 07:45:52;;;;;;;6.40;2.20;;;;;;;4.60;100.00;99983.05;105711;1257;60625;-53
2023/11/14 07:48:19;;;;;;;3.00;2.30;;;;;;;4.62;100.00;99973.75;104810;1254;60399;-53
2023/11/14 07:50:47;;;;;;;3.50;2.30;;;;;;;4.65;100.00;99970.86;105043;1255;73890;-53
2023/11/14 07:53:16;;;;;;;5.40;1.70;;;;;;;4.68;100.00;99970.62;106024;1260;66299;-55
2023/11/14 07:55:43;;;;;;;5.30;3.30;;;;;;;4.72;100.00;99965.19;104958;1254;71212;-51
2023/11/14 07:58:12;;;;;;;4.80;2.10;;;;;;;4.76;100.00;99955.34;107964;1254;60408;-54
2023/11/14 08:00:41;;;;;;;4.60;1.80;;;;;;;4.79;100.00;99947.61;105261;1261;61157;-56
2023/11/14 08:03:10;;;;;;;4.20;2.80;;;;;;;4.83;100.00;99948.95;105389;1260;72656;-52
2023/11/14 08:05:40;;;;;;;7.00;4.50;;;;;;;4.86;100.00;99953.32;106142;1254;66967;-54
2023/11/14 08:08:08;;;;;;;9.00;3.90;;;;;;;4.89;100.00;99956.10;105841;1257;72101;-51
2023/11/14 08:10:37;;;;;;;7.20;3.60;;;;;;;4.90;100.00;99949.33;105465;1255;60424;-55
2023/11/14 08:13:05;;;;;;;4.40;2.90;;;;;;;4.92;100.00;99947.86;105430;1254;60383;-53
2023/11/14 08:15:32;;;;;;;8.60;3.60;;;;;;;4.94;100.00;99947.80;106051;1253;73873;-51
2023/11/14 08:18:00;;;;;;;3.70;2.90;;;;;;;4.98;100.00;99952.00;105507;1254;67081;-53
2023/11/14 08:20:28;;;;;;;5.50;3.00;;;;;;;5.02;100.00;99965.23;105345;1260;71482;-54
2023/11/14 08:22:55;;;;;;;4.00;2.90;;;;;;;5.07;100.00;99977.23;105468;1257;60437;-54
2023/11/14 08:25:23;;;;;;;2.70;2.20;;;;;;;5.13;100.00;99997.55;105517;1258;60435;-55
2023/11/14 08:27:51;;;;;;;6.90;3.80;;;;;;;5.18;100.00;100001.89;105844;1258;72901;-55
2023/11/14 08:30:18;;;;;;;5.90;3.60;;;;;;;5.23;100.00;100003.38;105479;1259;66546;-57
2023/11/14 08:32:47;;;;;;;6.60;4.00;;;;;;;5.28;100.00;100003.42;105470;1257;72293;-55
2023/11/14 08:35:15;;;;;;;5.10;3.20;;;;;;;5.32;100.00;100013.84;105543;1253;60491;-55
2023/11/14 08:37:42;;;;;;;6.80;3.00;;;;;;;5.36;100.00;100008.61;107195;1254;60552;-51
2023/11/14 08:40:12;;;;;;;6.20;2.50;;;;;;;5.39;100.00;100005.14;105476;1254;73222;-56
2023/11/14 08:42:39;;;;;;;5.80;2.80;;;;;;;5.44;100.00;100005.39;105955;1257;66684;-54
2023/11/14 08:45:07;;;;;;;6.90;3.30;;;;;;;5.49;100.00;100000.82;105452;1255;71722;-53
2023/11/14 08:47:35;;;;;;;3.30;2.40;;;;;;;5.54;100.00;99997.65;106293;1255;60459;-55
2023/11/14 08:50:04;;;;;;;4.30;3.00;;;;;;;5.60;100.00;99989.87;105499;1257;60364;-53
2023/11/14 08:52:31;;;;;;;3.70;2.20;;;;;;;5.66;100.00;99988.64;108936;1253;73821;-58
2023/11/14 08:54:59;;;;;;;4.00;2.10;;;;;;;5.72;100.00;99986.34;106043;1257;66867;-55
2023/11/14 08:57:28;;;;;;;5.00;2.50;;;;;;;5.79;100.00;99977.65;105330;1258;72995;-53
2023/11/14 08:59:56;;;;;;;3.90;1.90;;;;;;;5.85;100.00;99986.05;105443;1254;60430;-53
2023/11/14 09:02:24;;;;;;;3.90;2.40;;;;;;;5.91;100.00;99994.30;105369;1258;60457;-53
2023/11/14 09:04:52;;;;;;;3.00;2.00;;;;;;;5.95;100.00;99993.09;109149;1254;73909;-52
2023/11/14 09:07:19;;;;;;;3.80;2.10;;;;;;;6.01;100.00;99984.23;108990;1253;66986;-53
2023/11/14 09:09:47;;;;;;;2.20;1.70;;;;;;;6.06;100.00;99973.58;108974;1254;74908;-57
2023/11/14 09:12:14;;;;;;;4.20;1.80;;;;;;;6.09;100.00;99967.98;108888;1254;60163;-52
2023/11/14 09:14:42;;;;;;;3.60;1.70;;;;;;;6.13;100.00;99965.56;108972;1254;60411;-56
2023/11/14 09:17:10;;;;;;;2.40;1.40;;;;;;;6.16;100.00;99967.08;108976;1254;73632;-53
2023/11/14 09:19:39;;;;;;;2.60;1.60;;;;;;;6.18;100.00;99977.02;105656;1261;67882;-52
2023/11/14 09:22:07;;;;;;;2.20;1.30;;;;;;;6.20;100.00;99985.52;105370;1257;73089;-55
2023/11/14 09:24:35;;;;;;;4.00;1.10;;;;;;;6.20;100.00;99994.23;105381;1259;60507;-50
2023/11/14 09:27:03;;;;;;;3.60;1.60;;;;;;;6.20;100.00;100006.36;108740;1260;61184;-53
2023/11/14 09:29:31;;;;;;;2.60;1.10;;;;;;;6.21;100.00;100007.56;108927;1253;74114;-52
2023/11/14 09:31:59;;;;;;;3.20;1.10;;;;;;;6.21;100.00;100003.83;109091;1255;68950;-53
2023/11/14 09:34:27;;;;;;;8.90;1.40;;;;;;;6.22;100.00;100005.95;109120;1253;71467;-54
2023/11/14 09:36:54;;;;;;;3.60;1.10;;;;;;;6.21;100.00;100008.28;108975;1254;60106;-51
2023/11/14 09:39:22;;;;;;;4.80;1.10;;;;;;;6.21;100.00;100002.03;109026;1254;60090;-53
2023/11/14 09:41:55;;;;;;;1.60;1.10;;;;;;;6.24;100.00;99998.77;108970;1254;73950;-57
2023/11/14 09:44:23;;;;;;;3.60;1.70;;;;;;;6.26;100.00;99989.98;109074;1253;69175;-54
2023/11/14 09:46:51;;;;;;;2.80;1.80;;;;;;;6.29;100.00;99993.29;108861;1254;74264;-55
2023/11/14 09:49:18;;;;;;;2.20;1.50;;;;;;;6.30;100.00;99994.66;108914;1254;61391;-54
2023/11/14 09:51:46;;;;;;;1.60;1.20;;;;;;;6.33;100.00;99997.62;107727;1254;60541;-51
2023/11/14 09:54:15;;;;;;;4.80;1.80;;;;;;;6.35;100.00;99992.95;105350;1259;73898;-51
2023/11/14 09:56:47;;;;;;;4.50;1.60;;;;;;;6.36;100.00;99989.52;106174;1259;66766;-55
2023/11/14 09:59:15;;;;;;;2.70;1.30;;;;;;;6.37;100.00;99989.31;106460;1254;72755;-57
2023/11/14 10:01:43;;;;;;;1.90;1.30;;;;;;;6.37;100.00;99984.86;105289;1254;60707;-53
2023/11/14 10:04:12;;;;;;;4.00;1.50;;;;;;;6.36;100.00;99982.02;105330;1253;60421;-53
2023/11/14 10:06:40;;;;;;;2.80;1.30;;;;;;;6.35;100.00;99977.06;105264;1260;73271;-53
2023/11/14 10:09:09;;;;;;;4.10;1.30;;;;;;;6.35;100.00;99973.52;106861;1253;69129;-56
2023/11/14 10:11:45;;;;;;;2.40;1.10;;;;;;;6.33;100.00;99967.50;105332;1257;73338;-57
2023/11/14 10:14:18;;;;;;;4.20;1.40;;;;;;;6.31;100.00;99963.62;105961;1254;60959;-53
2023/11/14 10:17:00;;;;;;;2.90;1.20;;;;;;;6.28;100.00;99959.98;105398;1257;60533;-51
2023/11/14 10:19:29;;;;;;;2.60;1.20;;;;;;;6.24;100.00;99953.85;105492;1257;73936;-52
2023/11/14 10:22:03;;;;;;;4.00;2.10;;;;;;;6.18;100.00;99946.55;105204;1254;68013;-56
2023/11/14 10:24:31;;;;;;;7.30;1.50;;;;;;;6.10;100.00;99938.55;104790;1253;70533;-56
2023/11/14 10:26:59;;;;;;;3.70;1.00;;;;;;;6.03;100.00;99928.40;105499;1257;60970;-56
2023/11/14 10:29:26;;;;;;;2.60;1.60;;;;;;;5.95;100.00;99911.71;104989;1257;60398;-55
2023/11/14 10:31:54;;;;;;;1.80;1.10;;;;;;;5.89;100.00;99898.66;105609;1254;74963;-54
2023/11/14 10:34:33;;;;;;;1.50;1.00;;;;;;;5.85;100.00;99883.27;104893;1257;66210;-53
2023/11/14 10:37:03;;;;;;;2.40;1.20;;;;;;;5.83;100.00;99878.70;106342;1256;72749;-52
2023/11/14 10:39:31;;;;;;;5.10;1.40;;;;;;;5.82;100.00;99861.44;105505;1256;60572;-56
2023/11/14 10:41:58;;;;;;;3.60;1.80;;;;;;;5.84;100.00;99856.75;105506;1254;60766;-54
2023/11/14 10:44:26;;;;;;;3.10;1.50;;;;;;;5.85;100.00;99855.84;105030;1254;71666;-53
2023/11/14 10:46:55;;;;;;;3.30;1.80;;;;;;;5.85;100.00;99848.38;105612;1255;69060;-53
2023/11/14 10:49:26;;;;;;;2.50;1.60;;;;;;;5.84;100.00;99841.98;107606;1257;72810;-54
2023/11/14 10:51:54;;;;;;;2.90;2.30;;;;;;;5.82;100.00;99839.89;105466;1254;60401;-51
2023/11/14 10:54:22;;;;;;;4.30;1.60;;;;;;;5.81;100.00;99828.86;105427;1254;60517;-52
2023/11/14 10:56:50;;;;;;;4.50;2.00;;;;;;;5.80;100.00;99820.89;105382;1254;72648;-53
2023/11/14 10:59:25;;;;;;;2.10;1.50;;;;;;;5.80;100.00;99820.19;105415;1255;67207;-54
2023/11/14 11:01:52;;;;;;;2.90;1.60;;;;;;;5.80;100.00;99803.10;105447;1254;72990;-51
2023/11/14 11:04:20;;;;;;;5.40;1.30;;;;;;;5.79;100.00;99795.98;105540;1254;60930;-54
2023/11/14 11:06:48;;;;;;;3.40;1.30;;;;;;;5.81;100.00;99789.89;105425;1257;60531;-53
2023/11/14 11:09:18;;;;;;;2.30;1.30;;;;;;;5.84;100.00;99782.35;105659;1256;74434;-53
2023/11/14 11:11:51;;;;;;;2.30;1.20;;;;;;;5.86;100.00;99773.00;106341;1254;66974;-53
2023/11/14 11:14:19;;;;;;;1.80;1.30;;;;;;;5.89;100.00;99769.91;105330;1258;71992;-54
2023/11/14 11:16:47;;;;;;;2.90;1.40;;;;;;;5.92;100.00;99773.58;105307;1254;60502;-52
2023/11/14 11:19:23;;;;;;;2.40;1.30;;;;;;;5.93;100.00;99763.22;105584;1253;60386;-55
2023/11/14 11:22:06;;;;;;;2.40;1.20;;;;;;;5.94;100.00;99759.64;105991;1257;73912;-54
2023/11/14 11:24:35;;;;;;;2.20;1.20;;;;;;;5.95;100.00;99763.18;105984;1258;65449;-53